createdAt,value
2019-03-09T00:00:08.030Z,37.20
2019-03-09T00:02:36.615Z,42.00
2019-03-09T00:05:05.695Z,30.20
2019-03-09T00:07:34.233Z,32.90
2019-03-09T00:10:02.806Z,32.10
2019-03-09T00:12:31.366Z,31.00
2019-03-09T00:17:28.294Z,30.00
2019-03-09T00:19:57.551Z,29.20
2019-03-09T00:22:26.150Z,32.40
2019-03-09T00:24:56.306Z,32.00
2019-03-09T00:30:07.210Z,32.60
2019-03-09T00:35:04.140Z,33.20
2019-03-09T00:37:32.741Z,33.60
2019-03-09T00:40:01.728Z,33.70
2019-03-09T00:42:30.297Z,34.40
2019-03-09T00:44:58.915Z,32.20
2019-03-09T00:49:55.685Z,32.70
2019-03-09T00:52:24.298Z,32.70
2019-03-09T00:57:21.597Z,33.20
2019-03-09T00:59:56.662Z,33.70
2019-03-09T01:02:25.232Z,35.10
2019-03-09T01:04:53.727Z,34.50
2019-03-09T01:07:22.396Z,34.80
2019-03-09T01:09:50.958Z,35.50
2019-03-09T01:12:19.527Z,33.70
2019-03-09T01:17:16.522Z,34.50
2019-03-09T01:19:45.098Z,35.30
2019-03-09T01:24:41.966Z,34.60
2019-03-09T01:27:10.542Z,33.20
2019-03-09T01:29:39.166Z,33.00
2019-03-09T01:32:07.654Z,33.80
2019-03-09T01:34:36.289Z,33.20
2019-03-09T01:37:04.824Z,33.90
2019-03-09T01:39:33.399Z,33.70
2019-03-09T01:44:30.195Z,33.20
2019-03-09T01:46:58.697Z,33.10
2019-03-09T01:51:55.572Z,33.30
2019-03-09T01:54:24.067Z,33.70
2019-03-09T01:56:52.711Z,33.40
2019-03-09T01:59:21.669Z,33.60
2019-03-09T02:01:51.151Z,33.50
2019-03-09T02:06:48.005Z,33.80
2019-03-09T02:09:16.502Z,35.40
2019-03-09T02:11:45.004Z,36.20
2019-03-09T02:14:13.540Z,36.20
2019-03-09T02:16:42.117Z,36.40
2019-03-09T02:21:39.032Z,36.70
2019-03-09T02:24:07.613Z,35.80
2019-03-09T02:26:36.118Z,34.70
2019-03-09T02:29:04.722Z,34.70
2019-03-09T02:34:01.556Z,37.00
2019-03-09T02:39:02.799Z,38.00
2019-03-09T02:41:31.364Z,37.50
2019-03-09T02:43:59.978Z,35.50
2019-03-09T02:46:28.476Z,37.30
2019-03-09T02:48:56.980Z,37.70
2019-03-09T02:51:25.889Z,38.00
2019-03-09T02:53:54.448Z,38.40
2019-03-09T02:56:22.947Z,38.00
2019-03-09T02:58:51.491Z,37.40
2019-03-09T03:01:39.435Z,36.00
2019-03-09T03:04:07.995Z,36.40
2019-03-09T03:09:05.509Z,36.70
2019-03-09T03:11:34.054Z,37.80
2019-03-09T03:14:02.696Z,38.00
2019-03-09T03:16:31.535Z,38.30
2019-03-09T03:19:00.073Z,38.10
2019-03-09T03:21:28.639Z,38.40
2019-03-09T03:23:57.288Z,39.00
2019-03-09T03:26:25.892Z,39.90
2019-03-09T03:31:22.652Z,38.60
2019-03-09T03:33:51.338Z,37.60
2019-03-09T03:36:19.909Z,38.70
2019-03-09T03:38:48.461Z,38.80
2019-03-09T03:41:17.023Z,35.40
2019-03-09T03:43:45.679Z,37.20
2019-03-09T03:46:14.242Z,38.10
2019-03-09T03:48:42.775Z,37.50
2019-03-09T03:51:11.347Z,38.00
2019-03-09T03:53:39.922Z,38.10
2019-03-09T03:56:08.534Z,37.40
2019-03-09T03:58:37.110Z,40.20
2019-03-09T04:01:06.007Z,38.40
2019-03-09T04:03:34.619Z,38.00
2019-03-09T04:06:04.052Z,38.60
2019-03-09T04:08:32.552Z,37.70
2019-03-09T04:11:01.166Z,38.40
2019-03-09T04:15:57.925Z,33.40
2019-03-09T04:18:26.542Z,31.90
2019-03-09T04:20:55.055Z,39.90
2019-03-09T04:23:23.699Z,33.10
2019-03-09T04:25:52.393Z,35.20
2019-03-09T04:28:20.884Z,36.80
2019-03-09T04:30:49.534Z,34.10
2019-03-09T04:33:18.203Z,38.50
2019-03-09T04:35:46.698Z,40.10
2019-03-09T04:38:15.698Z,43.90
2019-03-09T04:40:44.414Z,40.30
2019-03-09T04:43:13.005Z,39.70
2019-03-09T04:45:41.574Z,42.00
2019-03-09T04:48:10.117Z,41.30
2019-03-09T04:50:38.691Z,39.80
2019-03-09T04:53:07.331Z,39.40
2019-03-09T04:55:35.931Z,37.80
2019-03-09T04:58:04.429Z,36.70
2019-03-09T05:00:32.996Z,36.90
2019-03-09T05:03:01.593Z,34.60
2019-03-09T05:05:30.159Z,35.20
2019-03-09T05:08:02.395Z,33.90
2019-03-09T05:10:34.133Z,37.40
2019-03-09T05:13:12.051Z,40.20
2019-03-09T05:15:40.663Z,32.90
2019-03-09T05:18:09.226Z,37.60
2019-03-09T05:20:38.803Z,37.00
2019-03-09T05:23:07.418Z,37.60
2019-03-09T05:25:35.922Z,37.40
2019-03-09T05:28:04.491Z,41.30
2019-03-09T05:30:46.063Z,40.00
2019-03-09T05:33:15.010Z,38.80
2019-03-09T05:35:43.593Z,39.00
2019-03-09T05:38:12.206Z,38.10
2019-03-09T05:40:40.753Z,43.40
2019-03-09T05:43:09.322Z,38.30
2019-03-09T05:45:37.867Z,38.10
2019-03-09T05:48:06.431Z,39.70
2019-03-09T05:50:34.999Z,39.20
2019-03-09T05:55:45.140Z,41.90
2019-03-09T05:58:13.650Z,42.50
2019-03-09T06:00:43.033Z,40.90
2019-03-09T06:03:11.532Z,42.20
2019-03-09T06:05:45.019Z,43.20
2019-03-09T06:10:42.023Z,42.50
2019-03-09T06:13:10.583Z,42.60
2019-03-09T06:15:39.262Z,41.30
2019-03-09T06:20:36.008Z,40.80
2019-03-09T06:23:04.613Z,42.70
2019-03-09T06:28:01.604Z,42.40
2019-03-09T06:30:30.194Z,41.60
2019-03-09T06:35:48.983Z,45.90
2019-03-09T06:38:26.166Z,48.00
2019-03-09T06:41:02.702Z,49.10
2019-03-09T06:43:24.941Z,48.50
2019-03-09T06:45:53.450Z,48.20
2019-03-09T06:50:50.311Z,48.10
2019-03-09T06:53:18.956Z,48.50
2019-03-09T07:00:44.561Z,46.00
2019-03-09T07:03:13.179Z,44.10
2019-03-09T07:05:41.744Z,44.30
2019-03-09T07:08:10.390Z,44.70
2019-03-09T07:10:38.922Z,49.00
2019-03-09T07:13:07.481Z,53.90
2019-03-09T07:15:38.239Z,49.10
2019-03-09T07:20:37.699Z,44.80
2019-03-09T07:23:06.251Z,44.50
2019-03-09T07:25:34.782Z,43.20
2019-03-09T07:28:05.251Z,41.80
2019-03-09T07:33:02.205Z,41.50
2019-03-09T07:40:27.446Z,40.90
2019-03-09T07:42:56.087Z,40.80
2019-03-09T07:45:24.659Z,40.90
2019-03-09T07:47:53.202Z,39.70
2019-03-09T07:50:23.398Z,34.90
2019-03-09T07:57:49.340Z,33.70
2019-03-09T08:00:21.604Z,36.70
2019-03-09T08:02:50.195Z,40.00
2019-03-09T08:05:18.711Z,37.40
2019-03-09T08:07:47.292Z,35.90
2019-03-09T08:10:22.691Z,36.80
2019-03-09T08:12:51.253Z,35.40
2019-03-09T08:17:48.737Z,34.50
2019-03-09T08:20:18.577Z,31.00
2019-03-09T08:22:47.223Z,30.80
2019-03-09T08:25:44.347Z,31.20
2019-03-09T08:28:13.038Z,30.40
2019-03-09T08:30:41.675Z,31.60
2019-03-09T08:33:11.288Z,31.50
2019-03-09T08:35:39.938Z,32.00
2019-03-09T08:38:08.448Z,31.50
2019-03-09T08:40:37.137Z,30.00
2019-03-09T08:43:05.765Z,28.80
2019-03-09T08:45:34.784Z,28.40
2019-03-09T08:48:03.384Z,28.90
2019-03-09T08:50:31.955Z,28.30
2019-03-09T08:53:00.555Z,28.20
2019-03-09T08:55:29.161Z,28.80
2019-03-09T08:57:57.821Z,28.30
2019-03-09T09:00:31.342Z,27.80
2019-03-09T09:03:00.133Z,29.50
2019-03-09T09:05:28.888Z,28.50
2019-03-09T09:07:57.543Z,28.60
2019-03-09T09:10:26.209Z,30.00
2019-03-09T09:12:54.902Z,31.90
2019-03-09T09:15:23.644Z,33.10
2019-03-09T09:17:52.683Z,34.50
2019-03-09T09:20:23.583Z,33.80
2019-03-09T09:22:53.725Z,36.10
2019-03-09T09:25:22.405Z,35.30
2019-03-09T09:27:52.017Z,35.10
2019-03-09T09:30:23.743Z,35.70
2019-03-09T09:32:52.408Z,36.60
2019-03-09T09:35:21.045Z,36.00
2019-03-09T09:52:44.471Z,51.80
2019-03-09T09:55:15.635Z,51.00
2019-03-09T09:57:44.198Z,53.90
2019-03-09T10:02:42.684Z,54.00
2019-03-09T10:05:11.710Z,52.50
2019-03-09T11:12:05.538Z,82.00
2019-03-09T11:14:34.139Z,63.40
2019-03-09T11:19:58.507Z,91.00
2019-03-09T11:22:27.424Z,90.50
2019-03-09T11:25:03.071Z,90.50
2019-03-09T11:27:26.183Z,91.10
2019-03-09T11:29:54.821Z,90.80
2019-03-09T11:32:23.469Z,90.00
2019-03-09T11:34:52.001Z,89.50
2019-03-09T11:37:20.641Z,69.20
2019-03-09T11:42:17.618Z,79.60
2019-03-09T11:44:46.181Z,75.90
2019-03-09T11:47:14.757Z,71.80
2019-03-09T11:49:43.354Z,75.00
2019-03-09T11:52:19.661Z,81.70
2019-03-09T11:59:38.862Z,78.20
2019-03-09T12:02:07.549Z,78.70
2019-03-09T12:04:46.291Z,79.10
2019-03-09T12:17:01.512Z,71.00
2019-03-09T12:19:30.140Z,71.50
2019-03-09T12:24:28.845Z,69.90
2019-03-09T12:26:57.357Z,70.40
2019-03-09T12:29:27.010Z,69.00
2019-03-09T12:31:55.552Z,70.70
2019-03-09T12:34:24.159Z,71.90
2019-03-09T12:36:52.667Z,72.60
2019-03-09T12:41:49.546Z,70.00
2019-03-09T12:44:18.123Z,68.60
2019-03-09T12:46:46.696Z,54.20
2019-03-09T12:49:15.334Z,66.40
2019-03-09T12:54:12.086Z,61.60
2019-03-09T12:56:40.690Z,61.50
2019-03-09T12:59:09.339Z,63.10
2019-03-09T13:01:38.093Z,67.80
2019-03-09T13:04:10.606Z,53.20
2019-03-09T13:06:39.229Z,68.90
2019-03-09T13:19:01.657Z,59.70
2019-03-09T13:21:31.195Z,58.30
2019-03-09T13:23:59.892Z,50.50
2019-03-09T13:26:28.501Z,57.20
2019-03-09T13:28:57.181Z,57.10
2019-03-09T13:31:25.786Z,56.60
2019-03-09T13:33:54.376Z,57.20
2019-03-09T13:38:51.285Z,46.00
2019-03-09T13:41:19.966Z,55.50
2019-03-09T13:43:48.623Z,54.90
2019-03-09T13:46:17.268Z,55.20
2019-03-09T13:48:45.945Z,55.00
2019-03-09T13:51:14.508Z,54.80
2019-03-09T13:53:43.156Z,50.30
2019-03-09T13:56:11.842Z,53.80
2019-03-09T14:03:37.049Z,52.20
2019-03-09T14:06:05.706Z,53.20
2019-03-09T14:08:34.298Z,43.30
2019-03-09T14:11:02.893Z,52.10
2019-03-09T14:13:31.545Z,51.10
2019-03-09T14:30:50.886Z,51.40
2019-03-09T14:33:20.694Z,52.00
2019-03-09T14:35:49.426Z,50.80
2019-03-09T14:38:17.935Z,49.20
2019-03-09T14:40:46.533Z,50.20
2019-03-09T14:45:43.388Z,52.00
2019-03-09T14:48:11.996Z,55.50
2019-03-09T14:50:40.575Z,57.20
